DW2373 Thessaloniki GR current weather conditions

sailwx.info

Wind from 119

Air temperature 11.1° C
Dewpoint 7.0° C

Last reported at 2015-Mar-01 03:03 UTC.
Time now 2015-Mar-01 04:26 UTC

Location: N 40°31' E 022°58'.
View on Google Maps.

See reports from other nearby stations

  
Tides and Currents Weather Stations Pressure Air Temp Water Temp Dewpoint Dewpoint Depression Visibility Wind Speed Wind Dir Waves Ship Positions
date/time (UTC)wind fromknots sea level pressurealtimeterstation pressurevisibilityair tempwater tempwave heightnotes
2015-Mar-01 03:03 119 11.1
2015-Mar-01 02:03 101 11.1
2015-Mar-01 01:03 083 0 gusting 2 11.1
2015-Mar-01 00:03 090 0 gusting 2 11.1
2015-Feb-28 23:03 058 11.7
2015-Feb-28 22:03 143 1 gusting 5 11.7
2015-Feb-28 21:03 138 1 gusting 7 12.2
2015-Feb-28 20:03 069 1 gusting 5 12.2
2015-Feb-28 19:03 107 0 gusting 2 12.8
2015-Feb-28 18:03 091 0 gusting 4 12.8
2015-Feb-28 17:03 119 1 gusting 5 13.3
2015-Feb-28 16:03 127 2 gusting 6 14.4
2015-Feb-28 15:03 137 1 gusting 6 15.6
2015-Feb-28 14:03 135 2 gusting 6 16.1
2015-Feb-28 13:03 124 4 gusting 6 15.6
2015-Feb-28 12:03 133 1 gusting 5 16.1
2015-Feb-28 11:03 298 0 gusting 5 16.7
2015-Feb-28 10:03 312 2 gusting 5 15.0
2015-Feb-28 09:03 128 0 gusting 2 13.3
2015-Feb-28 08:03 319 12.2
2015-Feb-28 07:03 135 10.6
2015-Feb-28 05:03 090 10.6
2015-Feb-28 04:03 135 0 gusting 2 11.1
2015-Feb-28 03:03 049 2 gusting 4 11.1
2015-Feb-28 02:03 002 0 gusting 2 11.1
2015-Feb-28 01:03 016 0 gusting 1 11.1
2015-Feb-28 00:03 315 11.7
2015-Feb-27 23:03 347 11.1
2015-Feb-27 22:03 324 2 gusting 5 11.1
2015-Feb-27 21:03 323 1 gusting 6 11.7
2015-Feb-27 20:03 308 4 gusting 7 11.7
2015-Feb-27 19:03 324 5 gusting 6 11.7
2015-Feb-27 18:03 015 1 gusting 6 11.7
2015-Feb-27 17:03 012 2 gusting 6 11.7
2015-Feb-27 16:03 011 1 gusting 6 12.2
2015-Feb-27 15:03 348 0 gusting 6 12.8
2015-Feb-27 14:03 090 2 gusting 11 12.8
2015-Feb-27 13:03 093 2 gusting 10 13.9
2015-Feb-27 12:03 097 3 gusting 19 13.9
2015-Feb-27 11:03 043 3 gusting 13 13.3
2015-Feb-27 10:03 084 5 gusting 13 12.8
2015-Feb-27 09:03 111 6 gusting 15 12.8
2015-Feb-27 08:03 082 6 gusting 15 11.7
2015-Feb-27 07:03 110 5 gusting 13 11.7
2015-Feb-27 06:03 111 5 gusting 11 11.1
2015-Feb-27 05:03 145 10.0
2015-Feb-27 04:03 216 0 gusting 5 9.4